createdAt,value
2022-10-17T00:01:24.518Z,78.80
2022-10-17T00:03:51.098Z,80.30
2022-10-17T00:06:17.828Z,79.68
2022-10-17T00:08:44.491Z,75.07
2022-10-17T00:11:23.055Z,81.18
2022-10-17T00:13:51.406Z,81.82
2022-10-17T00:16:37.572Z,98.93
2022-10-17T00:19:05.890Z,89.38
2022-10-17T00:21:33.356Z,71.00
2022-10-17T00:24:00.835Z,68.72
2022-10-17T00:26:29.616Z,61.95
2022-10-17T00:28:57.112Z,67.35
2022-10-17T00:31:25.017Z,88.38
2022-10-17T00:33:52.608Z,95.32
2022-10-17T00:36:22.233Z,88.93
2022-10-17T00:38:52.864Z,86.60
2022-10-17T00:41:21.459Z,92.05
2022-10-17T00:43:58.180Z,88.80
2022-10-17T00:46:27.849Z,81.18
2022-10-17T00:48:56.308Z,75.35
2022-10-17T00:51:30.077Z,60.47
2022-10-17T00:53:56.672Z,87.75
2022-10-17T00:56:23.280Z,95.32
2022-10-17T00:58:50.303Z,94.38
2022-10-17T01:01:17.149Z,96.05
2022-10-17T01:03:44.045Z,95.88
2022-10-17T01:06:10.624Z,98.25
2022-10-17T01:08:38.096Z,84.75
2022-10-17T01:13:32.980Z,84.18
2022-10-17T01:16:05.756Z,90.05
2022-10-17T01:18:56.668Z,88.47
2022-10-17T01:21:56.652Z,91.13
2022-10-17T01:24:53.152Z,86.88
2022-10-17T01:27:51.949Z,76.50
2022-10-17T01:30:44.388Z,76.65
2022-10-17T01:33:17.520Z,66.70
2022-10-17T01:35:44.600Z,79.22
2022-10-17T01:38:17.113Z,75.35
2022-10-17T01:41:10.441Z,67.13
2022-10-17T01:43:44.557Z,82.22
2022-10-17T01:46:35.972Z,78.38
2022-10-17T01:49:05.764Z,79.28
2022-10-17T01:52:08.807Z,71.70
2022-10-17T01:54:53.861Z,68.43
2022-10-17T01:57:44.894Z,60.50
2022-10-17T02:00:17.812Z,69.47
2022-10-17T02:02:46.917Z,78.63
2022-10-17T02:05:19.262Z,85.90
2022-10-17T02:07:45.836Z,84.50
2022-10-17T02:10:25.089Z,85.45
2022-10-17T02:12:59.889Z,74.72
2022-10-17T02:15:39.675Z,75.82
2022-10-17T02:18:21.204Z,67.28
2022-10-17T02:21:02.968Z,67.88
2022-10-17T02:23:42.313Z,71.88
2022-10-17T02:26:33.924Z,61.72
2022-10-17T02:29:18.673Z,66.45
2022-10-17T02:32:06.863Z,74.22
2022-10-17T02:34:47.545Z,64.70
2022-10-17T02:37:19.344Z,71.45
2022-10-17T02:39:47.558Z,68.93
2022-10-17T02:42:15.100Z,77.80
2022-10-17T02:44:44.560Z,69.47
2022-10-17T02:47:19.017Z,68.63
2022-10-17T02:49:52.007Z,85.78
2022-10-17T02:52:51.832Z,83.38
2022-10-17T02:55:23.188Z,79.72
2022-10-17T02:57:54.210Z,77.53
2022-10-17T03:00:24.838Z,80.28
2022-10-17T03:02:53.151Z,84.80
2022-10-17T03:05:28.633Z,87.10
2022-10-17T03:07:55.843Z,84.35
2022-10-17T03:10:24.249Z,86.32
2022-10-17T03:12:50.991Z,87.40
2022-10-17T03:15:19.261Z,81.55
2022-10-17T03:20:18.476Z,84.22
2022-10-17T03:22:45.322Z,93.60
2022-10-17T03:25:11.883Z,105.50
2022-10-17T03:27:38.476Z,106.45
2022-10-17T03:30:05.608Z,106.93
2022-10-17T03:32:34.062Z,89.95
2022-10-17T03:35:01.083Z,91.45
2022-10-17T03:37:27.919Z,91.72
2022-10-17T03:39:55.080Z,84.85
2022-10-17T03:42:21.651Z,80.95
2022-10-17T03:44:48.600Z,82.45
2022-10-17T03:47:15.150Z,80.85
2022-10-17T03:49:42.010Z,64.82
2022-10-17T03:52:12.673Z,64.13
2022-10-17T03:54:39.880Z,61.10
2022-10-17T03:57:06.820Z,67.30
2022-10-17T03:59:33.481Z,68.10
2022-10-17T04:02:07.947Z,67.05
2022-10-17T04:04:35.380Z,63.35
2022-10-17T04:07:03.432Z,63.50
2022-10-17T04:09:30.397Z,64.50
2022-10-17T04:12:05.608Z,72.43
2022-10-17T04:14:33.450Z,69.38
2022-10-17T04:17:01.125Z,73.10
2022-10-17T04:19:28.704Z,80.53
2022-10-17T04:21:55.651Z,70.63
2022-10-17T04:24:22.622Z,80.25
2022-10-17T04:27:03.085Z,77.72
2022-10-17T04:29:32.577Z,87.25
2022-10-17T04:32:19.385Z,87.05
2022-10-17T04:34:50.180Z,86.20
2022-10-17T04:37:18.043Z,87.50
2022-10-17T04:39:46.303Z,85.95
2022-10-17T04:42:12.957Z,79.03
2022-10-17T04:44:40.674Z,83.53
2022-10-17T04:47:08.398Z,77.75
2022-10-17T04:49:35.023Z,75.65
2022-10-17T04:52:10.161Z,69.03
2022-10-17T04:54:39.773Z,73.32
2022-10-17T04:57:09.214Z,60.63
2022-10-17T04:59:36.063Z,64.10
2022-10-17T05:02:16.884Z,61.65
2022-10-17T05:04:45.008Z,61.20
2022-10-17T05:07:12.476Z,55.17
2022-10-17T05:09:47.512Z,66.03
2022-10-17T05:12:15.788Z,60.13
2022-10-17T05:14:44.767Z,56.70
2022-10-17T05:17:14.054Z,57.85
2022-10-17T05:19:40.600Z,63.35
2022-10-17T05:22:08.075Z,59.13
2022-10-17T05:24:34.685Z,61.13
2022-10-17T05:27:01.276Z,73.15
2022-10-17T05:29:28.013Z,96.28
2022-10-17T05:32:03.360Z,88.30
2022-10-17T05:34:29.899Z,92.20
2022-10-17T05:36:57.494Z,100.40
2022-10-17T05:39:24.590Z,96.13
2022-10-17T05:41:52.443Z,81.22
2022-10-17T05:44:19.144Z,88.28
2022-10-17T05:46:51.622Z,94.32
2022-10-17T05:49:31.972Z,90.82
2022-10-17T05:54:30.873Z,84.10
2022-10-17T05:56:57.856Z,88.20
2022-10-17T05:59:28.835Z,94.95
2022-10-17T06:02:00.769Z,94.93
2022-10-17T06:04:27.832Z,80.72
2022-10-17T06:06:56.255Z,92.50
2022-10-17T06:09:23.704Z,96.25
2022-10-17T06:11:52.948Z,87.35
2022-10-17T06:14:20.108Z,95.15
2022-10-17T06:16:49.077Z,90.95
2022-10-17T06:19:16.198Z,105.40
2022-10-17T06:21:42.909Z,84.72
2022-10-17T06:24:13.209Z,92.78
2022-10-17T06:26:41.939Z,95.45
2022-10-17T06:29:10.753Z,86.40
2022-10-17T06:31:43.738Z,83.05
2022-10-17T06:34:10.528Z,82.07
2022-10-17T06:36:38.709Z,69.30
2022-10-17T06:41:35.552Z,73.10
2022-10-17T06:44:10.901Z,65.80
2022-10-17T06:46:56.263Z,75.50
2022-10-17T06:49:23.073Z,77.10
2022-10-17T06:52:28.231Z,66.18
2022-10-17T06:55:23.054Z,65.03
2022-10-17T06:58:12.704Z,69.70
2022-10-17T07:00:47.103Z,66.43
2022-10-17T07:03:16.217Z,66.15
2022-10-17T07:05:42.756Z,56.83
2022-10-17T07:08:09.528Z,62.30
2022-10-17T07:10:38.580Z,71.50
2022-10-17T07:13:07.199Z,74.32
2022-10-17T07:15:37.779Z,85.82
2022-10-17T07:18:05.734Z,78.03
2022-10-17T07:20:32.812Z,62.95
2022-10-17T07:22:59.437Z,79.82
2022-10-17T07:25:26.364Z,52.63
2022-10-17T07:27:57.352Z,50.63
2022-10-17T07:30:24.529Z,43.78
2022-10-17T07:33:00.488Z,45.90
2022-10-17T07:35:27.564Z,65.90
2022-10-17T07:37:54.776Z,46.03
2022-10-17T07:40:21.733Z,52.17
2022-10-17T07:42:48.258Z,57.47
2022-10-17T07:45:17.048Z,46.03
2022-10-17T07:47:44.310Z,48.33
2022-10-17T07:50:14.735Z,42.03
2022-10-17T07:52:43.171Z,41.13
2022-10-17T07:55:10.073Z,39.40
2022-10-17T07:57:36.650Z,41.78
2022-10-17T08:00:03.565Z,36.72
2022-10-17T08:02:39.470Z,35.70
2022-10-17T08:05:06.409Z,36.53
2022-10-17T08:07:32.979Z,36.80
2022-10-17T08:09:59.675Z,27.67
2022-10-17T08:12:26.362Z,37.28
2022-10-17T08:14:52.955Z,33.42
2022-10-17T08:17:19.523Z,31.45
2022-10-17T08:19:46.072Z,29.50
2022-10-17T08:22:12.552Z,26.88
2022-10-17T08:24:39.136Z,28.60
2022-10-17T08:27:11.278Z,30.52
2022-10-17T08:29:39.119Z,29.50
2022-10-17T08:32:09.072Z,31.20
2022-10-17T08:34:36.438Z,33.83
2022-10-17T08:37:03.061Z,30.45
2022-10-17T08:39:29.623Z,33.47
2022-10-17T08:42:05.307Z,25.58
2022-10-17T08:44:46.960Z,32.03
2022-10-17T08:47:27.262Z,29.10
2022-10-17T08:49:58.308Z,22.17
2022-10-17T08:52:42.689Z,26.73
2022-10-17T08:55:32.202Z,24.33
2022-10-17T08:57:59.013Z,30.35
2022-10-17T09:00:28.444Z,26.17
2022-10-17T09:03:07.118Z,25.48
2022-10-17T09:05:49.240Z,23.17
2022-10-17T09:10:50.927Z,27.45
2022-10-17T09:13:38.294Z,26.08
2022-10-17T09:16:30.199Z,21.50
2022-10-17T09:19:05.085Z,20.65
2022-10-17T09:21:49.985Z,29.38
2022-10-17T09:24:25.325Z,22.65
2022-10-17T09:26:53.866Z,19.33
2022-10-17T09:29:23.764Z,21.25
2022-10-17T09:32:21.996Z,20.23
2022-10-17T09:34:48.896Z,22.25
2022-10-17T09:37:17.319Z,21.42
2022-10-17T09:39:44.685Z,21.10
2022-10-17T09:42:18.656Z,24.42
2022-10-17T09:44:58.167Z,24.02
2022-10-17T09:47:46.534Z,25.38
2022-10-17T09:50:24.982Z,21.30
2022-10-17T09:52:53.316Z,23.23
2022-10-17T09:55:47.849Z,22.75
2022-10-17T09:58:15.013Z,21.27
2022-10-17T10:00:44.437Z,23.90
2022-10-17T10:03:27.305Z,24.92
2022-10-17T10:06:18.028Z,18.20
2022-10-17T10:08:53.479Z,22.00
2022-10-17T10:11:26.027Z,20.05
2022-10-17T10:13:52.860Z,27.30
2022-10-17T10:16:30.598Z,25.20
2022-10-17T10:18:58.048Z,22.73
2022-10-17T10:21:27.005Z,25.20
2022-10-17T10:23:59.910Z,24.02
2022-10-17T10:26:32.226Z,20.45
2022-10-17T10:29:03.278Z,21.48
2022-10-17T10:31:40.341Z,22.52
2022-10-17T10:34:22.321Z,17.52
2022-10-17T10:37:00.820Z,21.40
2022-10-17T10:39:36.148Z,17.85
2022-10-17T10:42:06.810Z,18.60
2022-10-17T10:44:36.550Z,17.15
2022-10-17T10:47:17.012Z,19.58
2022-10-17T10:49:44.478Z,20.27
2022-10-17T10:52:35.498Z,17.52
2022-10-17T10:55:22.848Z,17.30
2022-10-17T10:57:53.163Z,15.68
2022-10-17T11:00:25.065Z,17.20
2022-10-17T11:03:04.505Z,14.70
2022-10-17T11:05:46.232Z,19.98
2022-10-17T11:08:45.715Z,20.40
2022-10-17T11:11:27.932Z,16.92
2022-10-17T11:14:03.583Z,19.27
2022-10-17T11:16:42.060Z,16.45
2022-10-17T11:19:36.361Z,16.65
2022-10-17T11:22:08.153Z,15.55
2022-10-17T11:29:40.460Z,17.63
2022-10-17T11:32:45.437Z,17.65
2022-10-17T11:35:36.688Z,15.63
2022-10-17T11:38:15.340Z,17.40
2022-10-17T11:40:47.776Z,15.40
2022-10-17T11:43:27.411Z,19.33
2022-10-17T11:46:03.304Z,14.00
2022-10-17T11:48:37.216Z,16.20
2022-10-17T11:54:23.153Z,13.93
2022-10-17T11:57:09.883Z,14.52
2022-10-17T12:00:06.681Z,15.60
2022-10-17T12:02:53.402Z,17.90
2022-10-17T12:05:37.281Z,17.42
2022-10-17T12:08:20.670Z,13.90
2022-10-17T12:10:57.952Z,17.67
2022-10-17T12:13:48.707Z,16.27
2022-10-17T12:16:21.424Z,16.65
2022-10-17T12:19:06.241Z,23.38
2022-10-17T12:22:06.985Z,25.88
2022-10-17T12:24:41.897Z,14.70
2022-10-17T12:27:45.793Z,15.23
2022-10-17T12:30:15.408Z,12.63
2022-10-17T12:33:14.385Z,21.55
2022-10-17T12:35:41.194Z,17.60
2022-10-17T12:38:16.733Z,13.50
2022-10-17T12:40:48.465Z,17.70
2022-10-17T12:43:15.458Z,14.43
2022-10-17T12:45:56.349Z,13.75
2022-10-17T12:48:38.407Z,11.93
2022-10-17T12:51:35.299Z,13.50
2022-10-17T12:54:15.229Z,20.65
2022-10-17T12:56:47.953Z,14.88
2022-10-17T12:59:20.382Z,17.05
2022-10-17T13:01:51.058Z,19.90
2022-10-17T13:04:18.775Z,16.75
2022-10-17T13:06:48.544Z,17.00
2022-10-17T13:09:38.829Z,13.15
2022-10-17T13:12:13.364Z,14.40
2022-10-17T13:14:42.708Z,19.38
2022-10-17T13:17:27.529Z,17.27
2022-10-17T13:19:55.863Z,18.30
2022-10-17T13:24:43.194Z,15.60
2022-10-17T13:27:28.672Z,11.02
2022-10-17T13:29:57.052Z,16.70
2022-10-17T13:32:25.372Z,14.35
2022-10-17T13:35:12.100Z,15.18
2022-10-17T13:37:43.773Z,15.32
2022-10-17T13:43:19.471Z,16.77
2022-10-17T13:45:52.708Z,15.68
2022-10-17T13:48:25.824Z,14.15
2022-10-17T13:51:02.414Z,14.90
2022-10-17T13:53:34.753Z,13.60
2022-10-17T13:59:01.386Z,15.30
2022-10-17T14:01:29.065Z,15.07
2022-10-17T14:04:08.883Z,14.90
2022-10-17T14:06:45.158Z,15.50
2022-10-17T14:09:40.627Z,14.80
2022-10-17T14:12:13.000Z,12.98
2022-10-17T14:15:05.541Z,20.58
2022-10-17T14:17:33.641Z,17.10
2022-10-17T14:20:34.481Z,18.92
2022-10-17T14:23:04.466Z,16.42
2022-10-17T14:25:39.959Z,18.35
2022-10-17T14:28:13.898Z,18.70
2022-10-17T14:30:56.412Z,15.88
2022-10-17T14:33:28.422Z,15.48
2022-10-17T14:35:58.475Z,17.88
2022-10-17T14:38:25.935Z,21.60
2022-10-17T14:43:55.669Z,14.30
2022-10-17T14:46:22.692Z,19.55
2022-10-17T14:48:55.036Z,19.42
2022-10-17T14:51:22.244Z,18.60
2022-10-17T14:54:29.150Z,21.25
2022-10-17T14:56:56.028Z,19.80
2022-10-17T14:59:52.318Z,18.48
2022-10-17T15:02:11.689Z,14.00
2022-10-17T15:04:38.185Z,32.10
2022-10-17T15:07:05.018Z,27.17
2022-10-17T15:09:31.843Z,28.00
2022-10-17T15:12:03.009Z,23.40
2022-10-17T15:14:29.575Z,34.10
2022-10-17T15:16:56.196Z,46.83
2022-10-17T15:19:22.793Z,37.40
2022-10-17T15:21:49.282Z,22.35
2022-10-17T15:24:20.063Z,16.23
2022-10-17T15:26:46.783Z,15.43
2022-10-17T15:29:16.123Z,15.43
2022-10-17T15:31:43.722Z,14.43
2022-10-17T15:34:10.309Z,16.30
2022-10-17T15:36:41.843Z,21.08
2022-10-17T15:39:09.877Z,18.42
2022-10-17T15:41:36.392Z,96.22
2022-10-17T15:44:03.179Z,212.35
2022-10-17T15:46:33.942Z,84.22
2022-10-17T15:49:07.620Z,38.60
2022-10-17T15:51:34.641Z,28.20
2022-10-17T15:54:01.744Z,29.80
2022-10-17T15:56:28.375Z,23.67
2022-10-17T15:58:54.988Z,24.48
2022-10-17T16:01:25.768Z,21.75
2022-10-17T16:03:52.917Z,24.33
2022-10-17T16:06:20.837Z,17.83
2022-10-17T16:08:48.071Z,17.20
2022-10-17T16:11:17.946Z,17.33
2022-10-17T16:13:53.149Z,15.50
2022-10-17T16:16:22.018Z,15.63
2022-10-17T16:18:48.807Z,11.38
2022-10-17T16:21:16.824Z,13.05
2022-10-17T16:23:43.563Z,15.38
2022-10-17T16:26:10.245Z,26.45
2022-10-17T16:28:37.144Z,23.60
2022-10-17T16:31:03.744Z,25.67
2022-10-17T16:33:31.592Z,28.17
2022-10-17T16:35:58.280Z,30.63
2022-10-17T16:38:24.830Z,27.15
2022-10-17T16:40:51.373Z,29.30
2022-10-17T16:43:17.914Z,20.67
2022-10-17T16:45:44.451Z,22.75
2022-10-17T16:48:12.128Z,81.43
2022-10-17T16:50:40.055Z,60.15
2022-10-17T16:53:06.595Z,73.10
2022-10-17T16:55:33.158Z,49.50
2022-10-17T16:58:00.097Z,47.85
2022-10-17T17:00:26.859Z,47.22
2022-10-17T17:02:53.725Z,37.05
2022-10-17T17:05:20.607Z,106.00
2022-10-17T17:07:48.001Z,86.57
2022-10-17T17:10:15.603Z,63.78
2022-10-17T17:12:42.160Z,47.47
2022-10-17T17:15:08.979Z,32.28
2022-10-17T17:17:50.209Z,31.63
2022-10-17T17:20:18.009Z,68.68
2022-10-17T17:22:44.551Z,73.60
2022-10-17T17:25:11.134Z,32.88
2022-10-17T17:27:37.655Z,20.85
2022-10-17T17:30:04.572Z,19.52
2022-10-17T17:32:32.597Z,17.42
2022-10-17T17:34:59.172Z,29.20
2022-10-17T17:37:25.936Z,30.98
2022-10-17T17:39:55.460Z,44.47
2022-10-17T17:42:22.157Z,40.90
2022-10-17T17:44:49.657Z,39.75
2022-10-17T17:47:16.200Z,41.17
2022-10-17T17:49:43.280Z,46.97
2022-10-17T17:52:09.821Z,54.75
2022-10-17T17:54:40.951Z,54.33
2022-10-17T17:57:07.922Z,69.20
2022-10-17T17:59:34.612Z,75.90
2022-10-17T18:02:02.812Z,61.83
2022-10-17T18:04:29.533Z,51.97
2022-10-17T18:06:56.183Z,62.88
2022-10-17T18:09:23.591Z,54.15
2022-10-17T18:11:50.181Z,51.97
2022-10-17T18:14:19.009Z,64.90
2022-10-17T18:16:45.877Z,61.55
2022-10-17T18:19:13.298Z,67.88
2022-10-17T18:21:39.942Z,51.50
2022-10-17T18:24:07.440Z,41.78
2022-10-17T18:26:34.934Z,44.03
2022-10-17T18:29:01.632Z,48.67
2022-10-17T18:31:31.925Z,181.40
2022-10-17T18:34:02.075Z,257.08
2022-10-17T18:36:30.575Z,597.80
2022-10-17T18:38:57.454Z,561.97
2022-10-17T18:41:26.089Z,351.33
2022-10-17T18:43:54.645Z,255.70
2022-10-17T18:46:26.999Z,113.45
2022-10-17T18:48:54.401Z,62.53
2022-10-17T18:51:22.926Z,41.63
2022-10-17T18:53:53.612Z,33.90
2022-10-17T18:56:21.132Z,32.38
2022-10-17T18:58:48.367Z,32.88
2022-10-17T19:01:20.693Z,34.22
2022-10-17T19:03:49.040Z,35.20
2022-10-17T19:06:18.182Z,37.97
2022-10-17T19:08:45.772Z,38.13
2022-10-17T19:11:24.491Z,606.15
2022-10-17T19:13:52.501Z,450.70
2022-10-17T19:16:22.475Z,193.13
2022-10-17T19:18:55.214Z,65.57
2022-10-17T19:21:22.442Z,40.20
2022-10-17T19:23:51.509Z,53.42
2022-10-17T19:26:19.433Z,46.55
2022-10-17T19:28:47.576Z,47.78
2022-10-17T19:31:17.921Z,51.28
2022-10-17T19:33:45.043Z,60.85
2022-10-17T19:36:13.380Z,67.72
2022-10-17T19:38:40.006Z,81.90
2022-10-17T19:41:14.994Z,99.53
2022-10-17T19:43:43.375Z,82.78
2022-10-17T19:46:17.121Z,72.00
2022-10-17T19:48:44.350Z,74.63
2022-10-17T19:51:14.780Z,88.93
2022-10-17T19:53:42.545Z,101.20
2022-10-17T19:56:09.555Z,76.55
2022-10-17T19:58:43.921Z,73.55
2022-10-17T20:01:15.878Z,71.13
2022-10-17T20:06:10.456Z,133.85
2022-10-17T20:08:40.155Z,147.02
2022-10-17T20:11:10.670Z,134.80
2022-10-17T20:13:38.334Z,119.63
2022-10-17T20:16:06.736Z,111.25
2022-10-17T20:18:34.277Z,103.10
2022-10-17T20:21:10.511Z,92.22
2022-10-17T20:23:38.192Z,94.45
2022-10-17T20:26:25.380Z,83.47
2022-10-17T20:28:53.863Z,76.50
2022-10-17T20:31:23.956Z,175.63
2022-10-17T20:33:58.861Z,154.05
2022-10-17T20:36:26.177Z,130.45
2022-10-17T20:38:57.260Z,109.07
2022-10-17T20:41:24.078Z,114.05
2022-10-17T20:43:52.169Z,117.45
2022-10-17T20:46:35.126Z,110.57
2022-10-17T20:49:03.685Z,98.13
2022-10-17T20:51:30.213Z,91.88
2022-10-17T20:56:30.452Z,90.20
2022-10-17T20:58:59.822Z,89.40
2022-10-17T21:01:28.164Z,92.00
2022-10-17T21:03:54.867Z,95.32
2022-10-17T21:06:22.157Z,101.45
2022-10-17T21:08:48.708Z,113.47
2022-10-17T21:11:16.733Z,117.55
2022-10-17T21:13:44.439Z,77.68
2022-10-17T21:16:14.909Z,65.75
2022-10-17T21:18:42.230Z,61.35
2022-10-17T21:21:08.707Z,64.32
2022-10-17T21:23:35.485Z,62.25
2022-10-17T21:26:03.737Z,66.30
2022-10-17T21:28:31.064Z,61.92
2022-10-17T21:31:10.448Z,76.68
2022-10-17T21:33:37.540Z,76.25
2022-10-17T21:36:04.684Z,87.30
2022-10-17T21:38:31.529Z,67.28
2022-10-17T21:40:58.082Z,56.20
2022-10-17T21:43:24.671Z,60.78
2022-10-17T21:45:54.347Z,47.75
2022-10-17T21:48:21.273Z,37.22
2022-10-17T21:50:47.763Z,55.33
2022-10-17T21:53:14.399Z,57.38
2022-10-17T21:55:40.899Z,59.58
2022-10-17T21:58:07.465Z,52.78
2022-10-17T22:00:34.032Z,54.03
2022-10-17T22:03:01.501Z,47.60
2022-10-17T22:05:28.007Z,63.75
2022-10-17T22:07:54.614Z,55.47
2022-10-17T22:10:21.168Z,56.70
2022-10-17T22:12:47.754Z,57.70
2022-10-17T22:17:45.937Z,71.78
2022-10-17T22:20:13.331Z,69.72
2022-10-17T22:22:39.939Z,71.40
2022-10-17T22:25:06.860Z,109.45
2022-10-17T22:27:33.648Z,106.70
2022-10-17T22:30:00.239Z,108.88
2022-10-17T22:32:26.797Z,97.38
2022-10-17T22:34:53.307Z,86.65
2022-10-17T22:37:20.013Z,80.78
2022-10-17T22:39:46.508Z,84.32
2022-10-17T22:42:13.092Z,98.28
2022-10-17T22:44:39.672Z,74.53
2022-10-17T22:47:06.243Z,76.18
2022-10-17T22:49:33.590Z,78.18
2022-10-17T22:52:00.682Z,82.90
2022-10-17T22:54:27.184Z,73.30
2022-10-17T22:56:53.700Z,73.65
2022-10-17T22:59:20.370Z,76.05
2022-10-17T23:01:47.139Z,76.13
2022-10-17T23:04:13.717Z,77.13
2022-10-17T23:06:40.307Z,77.90
2022-10-17T23:09:06.796Z,75.97
2022-10-17T23:11:33.413Z,82.47
2022-10-17T23:13:59.948Z,77.82
2022-10-17T23:16:26.782Z,59.83
2022-10-17T23:18:53.308Z,100.50
2022-10-17T23:21:20.035Z,85.65
2022-10-17T23:23:46.662Z,75.47
2022-10-17T23:26:14.300Z,70.35
2022-10-17T23:28:42.182Z,87.32
2022-10-17T23:31:14.637Z,91.82
2022-10-17T23:33:42.325Z,62.53
2022-10-17T23:36:10.560Z,84.75
2022-10-17T23:38:37.813Z,81.55
2022-10-17T23:41:04.408Z,74.90
2022-10-17T23:43:31.673Z,83.47
2022-10-17T23:45:58.199Z,90.80
2022-10-17T23:48:24.864Z,82.20
2022-10-17T23:50:51.409Z,86.72
2022-10-17T23:53:17.985Z,84.00
2022-10-17T23:55:44.504Z,92.82
2022-10-17T23:58:11.156Z,90.65
